sensor_id;sensor_type;location;lat;lon;timestamp;P1;durP1;ratioP1;P2;durP2;ratioP2
5867;SDS011;2960;49.142;7.768;2023-02-23T00:01:21;14.50;;;6.60;;
5867;SDS011;2960;49.142;7.768;2023-02-23T00:03:50;14.57;;;6.30;;
5867;SDS011;2960;49.142;7.768;2023-02-23T00:06:22;15.57;;;7.40;;
5867;SDS011;2960;49.142;7.768;2023-02-23T00:08:50;13.13;;;5.93;;
5867;SDS011;2960;49.142;7.768;2023-02-23T00:11:18;16.77;;;7.57;;
5867;SDS011;2960;49.142;7.768;2023-02-23T00:13:47;13.53;;;6.20;;
5867;SDS011;2960;49.142;7.768;2023-02-23T00:16:16;17.30;;;7.30;;
5867;SDS011;2960;49.142;7.768;2023-02-23T00:18:45;18.20;;;7.40;;
5867;SDS011;2960;49.142;7.768;2023-02-23T00:21:15;13.20;;;6.10;;
5867;SDS011;2960;49.142;7.768;2023-02-23T00:23:49;13.40;;;6.10;;
5867;SDS011;2960;49.142;7.768;2023-02-23T00:26:20;13.27;;;6.30;;
5867;SDS011;2960;49.142;7.768;2023-02-23T00:28:49;14.10;;;6.40;;
5867;SDS011;2960;49.142;7.768;2023-02-23T00:31:19;15.50;;;6.60;;
5867;SDS011;2960;49.142;7.768;2023-02-23T00:33:50;15.67;;;6.10;;
5867;SDS011;2960;49.142;7.768;2023-02-23T00:36:19;14.30;;;6.20;;
5867;SDS011;2960;49.142;7.768;2023-02-23T00:38:52;13.53;;;6.47;;
5867;SDS011;2960;49.142;7.768;2023-02-23T00:41:20;13.47;;;6.53;;
5867;SDS011;2960;49.142;7.768;2023-02-23T00:43:52;13.03;;;6.10;;
5867;SDS011;2960;49.142;7.768;2023-02-23T00:46:21;15.83;;;7.00;;
5867;SDS011;2960;49.142;7.768;2023-02-23T00:48:51;15.77;;;5.87;;
5867;SDS011;2960;49.142;7.768;2023-02-23T00:51:20;14.83;;;6.80;;
5867;SDS011;2960;49.142;7.768;2023-02-23T00:53:48;12.93;;;6.17;;
5867;SDS011;2960;49.142;7.768;2023-02-23T00:56:20;13.73;;;6.10;;
5867;SDS011;2960;49.142;7.768;2023-02-23T00:58:49;13.17;;;6.13;;
5867;SDS011;2960;49.142;7.768;2023-02-23T01:01:16;15.50;;;6.73;;
5867;SDS011;2960;49.142;7.768;2023-02-23T01:03:44;15.63;;;6.53;;
5867;SDS011;2960;49.142;7.768;2023-02-23T01:06:12;14.97;;;6.67;;
5867;SDS011;2960;49.142;7.768;2023-02-23T01:08:42;14.17;;;6.60;;
5867;SDS011;2960;49.142;7.768;2023-02-23T01:11:15;13.10;;;6.30;;
5867;SDS011;2960;49.142;7.768;2023-02-23T01:13:45;15.00;;;6.80;;
5867;SDS011;2960;49.142;7.768;2023-02-23T01:16:15;14.23;;;6.80;;
5867;SDS011;2960;49.142;7.768;2023-02-23T01:18:45;14.10;;;6.30;;
5867;SDS011;2960;49.142;7.768;2023-02-23T01:21:13;13.67;;;6.33;;
5867;SDS011;2960;49.142;7.768;2023-02-23T01:23:42;13.80;;;6.30;;
5867;SDS011;2960;49.142;7.768;2023-02-23T01:26:15;14.33;;;6.87;;
5867;SDS011;2960;49.142;7.768;2023-02-23T01:28:43;13.60;;;6.70;;
5867;SDS011;2960;49.142;7.768;2023-02-23T01:31:14;12.83;;;6.00;;
5867;SDS011;2960;49.142;7.768;2023-02-23T01:33:41;14.00;;;5.87;;
5867;SDS011;2960;49.142;7.768;2023-02-23T01:36:08;13.77;;;6.30;;
5867;SDS011;2960;49.142;7.768;2023-02-23T01:38:37;13.10;;;6.00;;
5867;SDS011;2960;49.142;7.768;2023-02-23T01:41:04;14.60;;;6.07;;
5867;SDS011;2960;49.142;7.768;2023-02-23T01:43:34;16.80;;;6.50;;
5867;SDS011;2960;49.142;7.768;2023-02-23T01:46:22;13.63;;;6.00;;
5867;SDS011;2960;49.142;7.768;2023-02-23T01:48:49;14.70;;;6.27;;
5867;SDS011;2960;49.142;7.768;2023-02-23T01:51:20;13.97;;;5.93;;
5867;SDS011;2960;49.142;7.768;2023-02-23T01:53:51;13.90;;;6.10;;
5867;SDS011;2960;49.142;7.768;2023-02-23T01:56:24;14.73;;;6.10;;
5867;SDS011;2960;49.142;7.768;2023-02-23T01:58:56;12.50;;;5.80;;
5867;SDS011;2960;49.142;7.768;2023-02-23T02:01:28;14.13;;;5.97;;
5867;SDS011;2960;49.142;7.768;2023-02-23T02:03:56;12.87;;;5.73;;
5867;SDS011;2960;49.142;7.768;2023-02-23T02:06:29;13.73;;;5.63;;
5867;SDS011;2960;49.142;7.768;2023-02-23T02:08:58;13.90;;;5.80;;
5867;SDS011;2960;49.142;7.768;2023-02-23T02:11:30;14.30;;;5.60;;
5867;SDS011;2960;49.142;7.768;2023-02-23T02:14:03;13.23;;;5.63;;
5867;SDS011;2960;49.142;7.768;2023-02-23T02:16:46;17.07;;;6.50;;
5867;SDS011;2960;49.142;7.768;2023-02-23T02:19:31;14.10;;;5.77;;
5867;SDS011;2960;49.142;7.768;2023-02-23T02:25:55;15.17;;;6.17;;
5867;SDS011;2960;49.142;7.768;2023-02-23T02:28:46;12.10;;;5.53;;
5867;SDS011;2960;49.142;7.768;2023-02-23T02:31:53;15.07;;;6.10;;
5867;SDS011;2960;49.142;7.768;2023-02-23T02:34:55;15.17;;;6.37;;
5867;SDS011;2960;49.142;7.768;2023-02-23T02:38:01;13.57;;;5.90;;
5867;SDS011;2960;49.142;7.768;2023-02-23T02:40:41;13.00;;;5.80;;
5867;SDS011;2960;49.142;7.768;2023-02-23T02:43:20;12.60;;;5.90;;
5867;SDS011;2960;49.142;7.768;2023-02-23T02:46:00;14.53;;;6.20;;
5867;SDS011;2960;49.142;7.768;2023-02-23T02:48:38;14.57;;;5.83;;
5867;SDS011;2960;49.142;7.768;2023-02-23T02:51:13;14.83;;;5.90;;
5867;SDS011;2960;49.142;7.768;2023-02-23T02:53:49;15.30;;;6.60;;
5867;SDS011;2960;49.142;7.768;2023-02-23T02:56:24;12.63;;;5.60;;
5867;SDS011;2960;49.142;7.768;2023-02-23T02:58:52;14.60;;;5.97;;
5867;SDS011;2960;49.142;7.768;2023-02-23T03:01:22;14.50;;;6.10;;
5867;SDS011;2960;49.142;7.768;2023-02-23T03:04:20;12.83;;;5.60;;
5867;SDS011;2960;49.142;7.768;2023-02-23T03:07:09;13.00;;;5.37;;
5867;SDS011;2960;49.142;7.768;2023-02-23T03:10:07;14.00;;;5.37;;
5867;SDS011;2960;49.142;7.768;2023-02-23T03:13:00;12.83;;;5.97;;
5867;SDS011;2960;49.142;7.768;2023-02-23T03:15:55;12.63;;;5.50;;
5867;SDS011;2960;49.142;7.768;2023-02-23T03:18:52;13.33;;;6.00;;
5867;SDS011;2960;49.142;7.768;2023-02-23T03:21:50;12.20;;;5.90;;
5867;SDS011;2960;49.142;7.768;2023-02-23T03:24:40;11.90;;;5.30;;
5867;SDS011;2960;49.142;7.768;2023-02-23T03:27:38;13.83;;;5.83;;
5867;SDS011;2960;49.142;7.768;2023-02-23T03:30:32;14.73;;;5.90;;
5867;SDS011;2960;49.142;7.768;2023-02-23T03:33:29;13.07;;;5.50;;
5867;SDS011;2960;49.142;7.768;2023-02-23T03:36:25;14.60;;;6.23;;
5867;SDS011;2960;49.142;7.768;2023-02-23T03:39:17;14.03;;;5.97;;
5867;SDS011;2960;49.142;7.768;2023-02-23T03:42:08;12.90;;;5.20;;
5867;SDS011;2960;49.142;7.768;2023-02-23T03:44:58;13.47;;;5.90;;
5867;SDS011;2960;49.142;7.768;2023-02-23T03:47:47;12.33;;;5.17;;
5867;SDS011;2960;49.142;7.768;2023-02-23T03:50:37;13.57;;;5.73;;
5867;SDS011;2960;49.142;7.768;2023-02-23T03:53:25;12.17;;;5.20;;
5867;SDS011;2960;49.142;7.768;2023-02-23T03:56:16;13.80;;;6.10;;
5867;SDS011;2960;49.142;7.768;2023-02-23T03:59:05;13.60;;;5.27;;
5867;SDS011;2960;49.142;7.768;2023-02-23T04:01:55;12.97;;;5.27;;
5867;SDS011;2960;49.142;7.768;2023-02-23T04:04:41;14.70;;;5.30;;
5867;SDS011;2960;49.142;7.768;2023-02-23T04:07:27;13.00;;;5.33;;
5867;SDS011;2960;49.142;7.768;2023-02-23T04:10:12;12.40;;;5.40;;
5867;SDS011;2960;49.142;7.768;2023-02-23T04:12:59;12.27;;;5.20;;
5867;SDS011;2960;49.142;7.768;2023-02-23T04:15:42;12.67;;;4.47;;
5867;SDS011;2960;49.142;7.768;2023-02-23T04:18:15;11.90;;;4.40;;
5867;SDS011;2960;49.142;7.768;2023-02-23T04:20:44;12.20;;;4.80;;
5867;SDS011;2960;49.142;7.768;2023-02-23T04:23:11;10.40;;;3.90;;
5867;SDS011;2960;49.142;7.768;2023-02-23T04:25:38;12.20;;;5.10;;
5867;SDS011;2960;49.142;7.768;2023-02-23T04:28:06;11.47;;;4.80;;
5867;SDS011;2960;49.142;7.768;2023-02-23T04:30:33;11.93;;;5.13;;
5867;SDS011;2960;49.142;7.768;2023-02-23T04:33:00;11.00;;;4.30;;
5867;SDS011;2960;49.142;7.768;2023-02-23T04:35:28;11.63;;;4.90;;
5867;SDS011;2960;49.142;7.768;2023-02-23T04:37:56;10.30;;;4.17;;
5867;SDS011;2960;49.142;7.768;2023-02-23T04:40:23;10.50;;;3.93;;
5867;SDS011;2960;49.142;7.768;2023-02-23T04:42:51;10.97;;;4.47;;
5867;SDS011;2960;49.142;7.768;2023-02-23T04:45:19;12.07;;;4.70;;
5867;SDS011;2960;49.142;7.768;2023-02-23T04:47:48;13.33;;;4.73;;
5867;SDS011;2960;49.142;7.768;2023-02-23T04:50:16;11.47;;;4.63;;
5867;SDS011;2960;49.142;7.768;2023-02-23T04:52:45;10.70;;;4.30;;
5867;SDS011;2960;49.142;7.768;2023-02-23T04:55:14;11.23;;;3.83;;
5867;SDS011;2960;49.142;7.768;2023-02-23T04:57:43;10.97;;;4.10;;
5867;SDS011;2960;49.142;7.768;2023-02-23T05:00:11;10.67;;;4.20;;
5867;SDS011;2960;49.142;7.768;2023-02-23T05:02:39;10.30;;;3.80;;
5867;SDS011;2960;49.142;7.768;2023-02-23T05:05:07;11.50;;;3.90;;
5867;SDS011;2960;49.142;7.768;2023-02-23T05:07:35;12.00;;;4.57;;
5867;SDS011;2960;49.142;7.768;2023-02-23T05:10:04;10.03;;;3.73;;
5867;SDS011;2960;49.142;7.768;2023-02-23T05:12:33;10.60;;;4.00;;
5867;SDS011;2960;49.142;7.768;2023-02-23T05:15:00;12.40;;;4.30;;
5867;SDS011;2960;49.142;7.768;2023-02-23T05:17:27;11.60;;;3.90;;
5867;SDS011;2960;49.142;7.768;2023-02-23T05:19:54;10.30;;;3.80;;
5867;SDS011;2960;49.142;7.768;2023-02-23T05:22:21;10.90;;;3.97;;
5867;SDS011;2960;49.142;7.768;2023-02-23T05:24:48;10.80;;;3.77;;
5867;SDS011;2960;49.142;7.768;2023-02-23T05:27:19;10.30;;;3.67;;
5867;SDS011;2960;49.142;7.768;2023-02-23T05:29:47;10.37;;;3.20;;
5867;SDS011;2960;49.142;7.768;2023-02-23T05:32:14;10.10;;;3.60;;
5867;SDS011;2960;49.142;7.768;2023-02-23T05:34:41;12.47;;;3.80;;
5867;SDS011;2960;49.142;7.768;2023-02-23T05:37:08;10.10;;;3.50;;
5867;SDS011;2960;49.142;7.768;2023-02-23T05:39:35;11.30;;;4.10;;
5867;SDS011;2960;49.142;7.768;2023-02-23T05:42:02;10.50;;;3.53;;
5867;SDS011;2960;49.142;7.768;2023-02-23T05:44:31;10.83;;;3.90;;
5867;SDS011;2960;49.142;7.768;2023-02-23T05:46:58;10.80;;;3.80;;
5867;SDS011;2960;49.142;7.768;2023-02-23T05:49:25;10.10;;;3.87;;
5867;SDS011;2960;49.142;7.768;2023-02-23T05:51:53;9.87;;;3.70;;
5867;SDS011;2960;49.142;7.768;2023-02-23T05:54:21;10.07;;;3.50;;
5867;SDS011;2960;49.142;7.768;2023-02-23T05:56:48;10.73;;;3.77;;
5867;SDS011;2960;49.142;7.768;2023-02-23T05:59:15;9.73;;;3.47;;
5867;SDS011;2960;49.142;7.768;2023-02-23T06:01:43;10.40;;;3.70;;
5867;SDS011;2960;49.142;7.768;2023-02-23T06:04:10;12.43;;;3.97;;
5867;SDS011;2960;49.142;7.768;2023-02-23T06:06:38;11.17;;;3.80;;
5867;SDS011;2960;49.142;7.768;2023-02-23T06:09:08;10.67;;;3.70;;
5867;SDS011;2960;49.142;7.768;2023-02-23T06:11:35;9.47;;;3.10;;
5867;SDS011;2960;49.142;7.768;2023-02-23T06:14:02;10.37;;;3.93;;
5867;SDS011;2960;49.142;7.768;2023-02-23T06:16:29;10.20;;;3.90;;
5867;SDS011;2960;49.142;7.768;2023-02-23T06:18:58;10.23;;;3.70;;
5867;SDS011;2960;49.142;7.768;2023-02-23T06:21:25;9.57;;;3.33;;
5867;SDS011;2960;49.142;7.768;2023-02-23T06:23:52;10.17;;;3.60;;
5867;SDS011;2960;49.142;7.768;2023-02-23T06:26:19;10.40;;;4.10;;
5867;SDS011;2960;49.142;7.768;2023-02-23T06:28:46;10.30;;;4.00;;
5867;SDS011;2960;49.142;7.768;2023-02-23T06:31:13;11.30;;;3.80;;
5867;SDS011;2960;49.142;7.768;2023-02-23T06:33:40;11.03;;;4.17;;
5867;SDS011;2960;49.142;7.768;2023-02-23T06:36:08;11.80;;;4.50;;
5867;SDS011;2960;49.142;7.768;2023-02-23T06:38:36;10.43;;;3.83;;
5867;SDS011;2960;49.142;7.768;2023-02-23T06:41:06;10.43;;;3.97;;
5867;SDS011;2960;49.142;7.768;2023-02-23T06:43:34;13.63;;;4.80;;
5867;SDS011;2960;49.142;7.768;2023-02-23T06:46:01;11.13;;;3.93;;
5867;SDS011;2960;49.142;7.768;2023-02-23T06:48:30;11.23;;;4.00;;
5867;SDS011;2960;49.142;7.768;2023-02-23T06:50:58;11.00;;;4.10;;
5867;SDS011;2960;49.142;7.768;2023-02-23T06:53:26;10.93;;;4.07;;
5867;SDS011;2960;49.142;7.768;2023-02-23T06:55:54;11.07;;;3.93;;
5867;SDS011;2960;49.142;7.768;2023-02-23T06:58:21;12.10;;;4.17;;
5867;SDS011;2960;49.142;7.768;2023-02-23T07:00:48;11.77;;;4.13;;
5867;SDS011;2960;49.142;7.768;2023-02-23T07:03:16;12.37;;;4.43;;
5867;SDS011;2960;49.142;7.768;2023-02-23T07:05:44;11.90;;;4.27;;
5867;SDS011;2960;49.142;7.768;2023-02-23T07:08:14;11.60;;;4.70;;
5867;SDS011;2960;49.142;7.768;2023-02-23T07:10:44;12.20;;;4.50;;
5867;SDS011;2960;49.142;7.768;2023-02-23T07:13:11;12.33;;;4.90;;
5867;SDS011;2960;49.142;7.768;2023-02-23T07:15:39;11.00;;;4.13;;
5867;SDS011;2960;49.142;7.768;2023-02-23T07:18:06;10.90;;;3.87;;
5867;SDS011;2960;49.142;7.768;2023-02-23T07:20:34;10.73;;;4.03;;
5867;SDS011;2960;49.142;7.768;2023-02-23T07:23:01;11.83;;;4.30;;
5867;SDS011;2960;49.142;7.768;2023-02-23T07:25:29;10.87;;;4.20;;
5867;SDS011;2960;49.142;7.768;2023-02-23T07:27:57;11.03;;;4.43;;
5867;SDS011;2960;49.142;7.768;2023-02-23T07:30:24;11.63;;;4.33;;
5867;SDS011;2960;49.142;7.768;2023-02-23T07:32:52;11.40;;;4.10;;
5867;SDS011;2960;49.142;7.768;2023-02-23T07:35:19;10.67;;;4.10;;
5867;SDS011;2960;49.142;7.768;2023-02-23T07:37:46;11.40;;;4.30;;
5867;SDS011;2960;49.142;7.768;2023-02-23T07:40:14;9.97;;;3.93;;
5867;SDS011;2960;49.142;7.768;2023-02-23T07:42:43;10.13;;;4.37;;
5867;SDS011;2960;49.142;7.768;2023-02-23T07:45:12;12.13;;;4.83;;
5867;SDS011;2960;49.142;7.768;2023-02-23T07:47:41;11.37;;;4.10;;
5867;SDS011;2960;49.142;7.768;2023-02-23T07:50:09;10.90;;;4.60;;
5867;SDS011;2960;49.142;7.768;2023-02-23T07:52:38;10.20;;;4.20;;
5867;SDS011;2960;49.142;7.768;2023-02-23T07:55:07;10.97;;;3.97;;
5867;SDS011;2960;49.142;7.768;2023-02-23T07:57:36;11.27;;;4.30;;
5867;SDS011;2960;49.142;7.768;2023-02-23T08:00:04;11.33;;;4.40;;
5867;SDS011;2960;49.142;7.768;2023-02-23T08:02:35;10.70;;;4.40;;
5867;SDS011;2960;49.142;7.768;2023-02-23T08:05:03;11.90;;;4.60;;
5867;SDS011;2960;49.142;7.768;2023-02-23T08:07:31;11.10;;;4.60;;
5867;SDS011;2960;49.142;7.768;2023-02-23T08:09:58;12.50;;;5.00;;
5867;SDS011;2960;49.142;7.768;2023-02-23T08:12:25;10.77;;;4.70;;
5867;SDS011;2960;49.142;7.768;2023-02-23T08:14:52;11.50;;;4.60;;
5867;SDS011;2960;49.142;7.768;2023-02-23T08:17:19;11.50;;;4.97;;
5867;SDS011;2960;49.142;7.768;2023-02-23T08:19:48;10.60;;;4.60;;
5867;SDS011;2960;49.142;7.768;2023-02-23T08:22:15;12.60;;;5.10;;
5867;SDS011;2960;49.142;7.768;2023-02-23T08:24:42;12.00;;;5.33;;
5867;SDS011;2960;49.142;7.768;2023-02-23T08:27:09;12.70;;;5.07;;
5867;SDS011;2960;49.142;7.768;2023-02-23T08:29:36;12.00;;;4.47;;
5867;SDS011;2960;49.142;7.768;2023-02-23T08:32:04;13.30;;;5.00;;
5867;SDS011;2960;49.142;7.768;2023-02-23T08:34:31;11.60;;;4.80;;
5867;SDS011;2960;49.142;7.768;2023-02-23T08:37:05;11.37;;;4.70;;
5867;SDS011;2960;49.142;7.768;2023-02-23T08:39:34;11.80;;;4.97;;
5867;SDS011;2960;49.142;7.768;2023-02-23T08:42:02;11.50;;;4.73;;
5867;SDS011;2960;49.142;7.768;2023-02-23T08:44:31;11.40;;;4.70;;
5867;SDS011;2960;49.142;7.768;2023-02-23T08:46:58;11.40;;;4.63;;
5867;SDS011;2960;49.142;7.768;2023-02-23T08:49:28;11.70;;;4.80;;
5867;SDS011;2960;49.142;7.768;2023-02-23T08:51:56;11.70;;;5.47;;
5867;SDS011;2960;49.142;7.768;2023-02-23T08:54:25;11.23;;;4.43;;
5867;SDS011;2960;49.142;7.768;2023-02-23T08:56:54;12.23;;;5.20;;
5867;SDS011;2960;49.142;7.768;2023-02-23T08:59:21;11.93;;;4.60;;
5867;SDS011;2960;49.142;7.768;2023-02-23T09:01:49;12.33;;;5.30;;
5867;SDS011;2960;49.142;7.768;2023-02-23T09:04:16;13.17;;;4.73;;
5867;SDS011;2960;49.142;7.768;2023-02-23T09:06:44;11.60;;;5.17;;
5867;SDS011;2960;49.142;7.768;2023-02-23T09:09:13;14.70;;;5.67;;
5867;SDS011;2960;49.142;7.768;2023-02-23T09:11:41;11.97;;;5.17;;
5867;SDS011;2960;49.142;7.768;2023-02-23T09:14:08;11.83;;;5.10;;
5867;SDS011;2960;49.142;7.768;2023-02-23T09:16:36;12.10;;;5.17;;
5867;SDS011;2960;49.142;7.768;2023-02-23T09:19:07;11.90;;;4.73;;
5867;SDS011;2960;49.142;7.768;2023-02-23T09:21:34;11.50;;;4.80;;
5867;SDS011;2960;49.142;7.768;2023-02-23T09:24:02;11.90;;;4.80;;
5867;SDS011;2960;49.142;7.768;2023-02-23T09:26:30;14.23;;;5.50;;
5867;SDS011;2960;49.142;7.768;2023-02-23T09:29:01;12.07;;;4.90;;
5867;SDS011;2960;49.142;7.768;2023-02-23T09:31:28;11.63;;;4.73;;
5867;SDS011;2960;49.142;7.768;2023-02-23T09:33:55;11.87;;;5.17;;
5867;SDS011;2960;49.142;7.768;2023-02-23T09:36:24;11.60;;;5.40;;
5867;SDS011;2960;49.142;7.768;2023-02-23T09:38:53;11.40;;;5.07;;
5867;SDS011;2960;49.142;7.768;2023-02-23T09:41:29;12.27;;;4.80;;
5867;SDS011;2960;49.142;7.768;2023-02-23T09:44:20;13.30;;;5.50;;
5867;SDS011;2960;49.142;7.768;2023-02-23T09:47:19;11.70;;;4.87;;
5867;SDS011;2960;49.142;7.768;2023-02-23T09:49:58;12.87;;;5.60;;
5867;SDS011;2960;49.142;7.768;2023-02-23T09:52:32;13.27;;;5.50;;
5867;SDS011;2960;49.142;7.768;2023-02-23T09:55:07;12.70;;;5.40;;
5867;SDS011;2960;49.142;7.768;2023-02-23T09:57:37;12.13;;;5.27;;
5867;SDS011;2960;49.142;7.768;2023-02-23T10:00:14;11.73;;;4.90;;
5867;SDS011;2960;49.142;7.768;2023-02-23T10:02:59;11.80;;;4.70;;
5867;SDS011;2960;49.142;7.768;2023-02-23T10:05:37;11.57;;;4.53;;
5867;SDS011;2960;49.142;7.768;2023-02-23T10:08:16;11.47;;;4.60;;
5867;SDS011;2960;49.142;7.768;2023-02-23T10:11:04;11.80;;;5.00;;
5867;SDS011;2960;49.142;7.768;2023-02-23T10:13:45;11.20;;;4.27;;
5867;SDS011;2960;49.142;7.768;2023-02-23T10:16:27;10.93;;;4.20;;
5867;SDS011;2960;49.142;7.768;2023-02-23T10:19:12;12.10;;;4.80;;
5867;SDS011;2960;49.142;7.768;2023-02-23T10:21:47;12.50;;;4.80;;
5867;SDS011;2960;49.142;7.768;2023-02-23T10:24:23;13.30;;;4.80;;
5867;SDS011;2960;49.142;7.768;2023-02-23T10:26:53;17.80;;;4.50;;
5867;SDS011;2960;49.142;7.768;2023-02-23T10:29:25;11.77;;;4.40;;
5867;SDS011;2960;49.142;7.768;2023-02-23T10:32:01;11.23;;;4.20;;
5867;SDS011;2960;49.142;7.768;2023-02-23T10:34:33;12.13;;;4.20;;
5867;SDS011;2960;49.142;7.768;2023-02-23T10:37:01;11.17;;;4.20;;
5867;SDS011;2960;49.142;7.768;2023-02-23T10:39:31;10.97;;;4.43;;
5867;SDS011;2960;49.142;7.768;2023-02-23T10:41:59;10.77;;;4.40;;
5867;SDS011;2960;49.142;7.768;2023-02-23T10:44:31;11.77;;;4.90;;
5867;SDS011;2960;49.142;7.768;2023-02-23T10:47:00;11.17;;;4.50;;
5867;SDS011;2960;49.142;7.768;2023-02-23T10:49:34;11.50;;;4.77;;
5867;SDS011;2960;49.142;7.768;2023-02-23T10:52:09;12.70;;;5.27;;
5867;SDS011;2960;49.142;7.768;2023-02-23T10:54:42;11.30;;;4.63;;
5867;SDS011;2960;49.142;7.768;2023-02-23T10:57:12;11.63;;;4.93;;
5867;SDS011;2960;49.142;7.768;2023-02-23T11:00:00;12.93;;;5.10;;
5867;SDS011;2960;49.142;7.768;2023-02-23T11:02:52;11.37;;;4.80;;
5867;SDS011;2960;49.142;7.768;2023-02-23T11:05:31;11.87;;;4.90;;
5867;SDS011;2960;49.142;7.768;2023-02-23T11:08:16;11.20;;;4.60;;
5867;SDS011;2960;49.142;7.768;2023-02-23T11:13:52;12.27;;;5.30;;
5867;SDS011;2960;49.142;7.768;2023-02-23T11:16:21;11.63;;;4.60;;
5867;SDS011;2960;49.142;7.768;2023-02-23T11:18:53;12.77;;;4.97;;
5867;SDS011;2960;49.142;7.768;2023-02-23T11:21:24;12.27;;;5.20;;
5867;SDS011;2960;49.142;7.768;2023-02-23T11:23:57;12.37;;;4.83;;
5867;SDS011;2960;49.142;7.768;2023-02-23T11:26:38;10.87;;;4.27;;
5867;SDS011;2960;49.142;7.768;2023-02-23T11:29:13;11.30;;;4.53;;
5867;SDS011;2960;49.142;7.768;2023-02-23T11:31:47;12.00;;;4.73;;
5867;SDS011;2960;49.142;7.768;2023-02-23T11:34:21;11.40;;;4.63;;
5867;SDS011;2960;49.142;7.768;2023-02-23T11:36:59;12.67;;;4.87;;
5867;SDS011;2960;49.142;7.768;2023-02-23T11:39:31;11.70;;;5.00;;
5867;SDS011;2960;49.142;7.768;2023-02-23T11:42:12;12.17;;;5.37;;
5867;SDS011;2960;49.142;7.768;2023-02-23T11:44:46;12.77;;;4.90;;
5867;SDS011;2960;49.142;7.768;2023-02-23T11:47:18;12.73;;;4.60;;
5867;SDS011;2960;49.142;7.768;2023-02-23T11:49:49;12.03;;;5.07;;
5867;SDS011;2960;49.142;7.768;2023-02-23T11:52:18;10.80;;;4.67;;
5867;SDS011;2960;49.142;7.768;2023-02-23T11:54:51;11.80;;;4.77;;
5867;SDS011;2960;49.142;7.768;2023-02-23T11:57:25;12.67;;;4.87;;
5867;SDS011;2960;49.142;7.768;2023-02-23T11:59:56;12.47;;;4.50;;
5867;SDS011;2960;49.142;7.768;2023-02-23T12:02:25;12.53;;;4.43;;
5867;SDS011;2960;49.142;7.768;2023-02-23T12:05:02;10.63;;;4.37;;
5867;SDS011;2960;49.142;7.768;2023-02-23T12:07:36;12.83;;;5.60;;
5867;SDS011;2960;49.142;7.768;2023-02-23T12:10:10;11.53;;;4.27;;
5867;SDS011;2960;49.142;7.768;2023-02-23T12:12:45;11.33;;;4.30;;
5867;SDS011;2960;49.142;7.768;2023-02-23T12:15:23;11.37;;;4.50;;
5867;SDS011;2960;49.142;7.768;2023-02-23T12:18:01;11.33;;;4.80;;
5867;SDS011;2960;49.142;7.768;2023-02-23T12:20:39;12.20;;;5.23;;
5867;SDS011;2960;49.142;7.768;2023-02-23T12:23:11;11.30;;;4.73;;
5867;SDS011;2960;49.142;7.768;2023-02-23T12:25:44;11.57;;;5.27;;
5867;SDS011;2960;49.142;7.768;2023-02-23T12:28:21;13.20;;;5.40;;
5867;SDS011;2960;49.142;7.768;2023-02-23T12:30:59;12.33;;;5.20;;
5867;SDS011;2960;49.142;7.768;2023-02-23T12:33:35;12.20;;;5.10;;
5867;SDS011;2960;49.142;7.768;2023-02-23T12:36:10;11.63;;;5.07;;
5867;SDS011;2960;49.142;7.768;2023-02-23T12:38:48;12.37;;;5.17;;
5867;SDS011;2960;49.142;7.768;2023-02-23T12:41:24;13.60;;;5.50;;
5867;SDS011;2960;49.142;7.768;2023-02-23T12:43:59;13.67;;;6.10;;
5867;SDS011;2960;49.142;7.768;2023-02-23T12:46:40;14.03;;;5.77;;
5867;SDS011;2960;49.142;7.768;2023-02-23T12:49:15;13.77;;;6.07;;
5867;SDS011;2960;49.142;7.768;2023-02-23T12:51:52;12.23;;;5.07;;
5867;SDS011;2960;49.142;7.768;2023-02-23T12:54:24;13.80;;;5.23;;
5867;SDS011;2960;49.142;7.768;2023-02-23T12:56:53;12.80;;;5.87;;
5867;SDS011;2960;49.142;7.768;2023-02-23T12:59:37;13.40;;;5.70;;
5867;SDS011;2960;49.142;7.768;2023-02-23T13:02:19;14.40;;;5.57;;
5867;SDS011;2960;49.142;7.768;2023-02-23T13:05:00;11.90;;;5.03;;
5867;SDS011;2960;49.142;7.768;2023-02-23T13:07:54;13.53;;;5.67;;
5867;SDS011;2960;49.142;7.768;2023-02-23T13:10:31;12.67;;;5.47;;
5867;SDS011;2960;49.142;7.768;2023-02-23T13:13:11;14.77;;;5.90;;
5867;SDS011;2960;49.142;7.768;2023-02-23T13:15:56;12.80;;;5.43;;
5867;SDS011;2960;49.142;7.768;2023-02-23T13:18:28;11.90;;;5.50;;
5867;SDS011;2960;49.142;7.768;2023-02-23T13:21:01;14.00;;;5.90;;
5867;SDS011;2960;49.142;7.768;2023-02-23T13:23:37;14.30;;;6.10;;
5867;SDS011;2960;49.142;7.768;2023-02-23T13:26:13;14.70;;;6.13;;
5867;SDS011;2960;49.142;7.768;2023-02-23T13:28:51;13.73;;;5.30;;
5867;SDS011;2960;49.142;7.768;2023-02-23T13:31:25;12.20;;;5.50;;
5867;SDS011;2960;49.142;7.768;2023-02-23T13:33:58;11.83;;;5.33;;
5867;SDS011;2960;49.142;7.768;2023-02-23T13:36:28;15.73;;;5.80;;
5867;SDS011;2960;49.142;7.768;2023-02-23T13:42:05;12.20;;;5.67;;
5867;SDS011;2960;49.142;7.768;2023-02-23T13:44:51;12.40;;;6.00;;
5867;SDS011;2960;49.142;7.768;2023-02-23T13:47:31;12.77;;;5.67;;
5867;SDS011;2960;49.142;7.768;2023-02-23T13:50:14;11.90;;;5.37;;
5867;SDS011;2960;49.142;7.768;2023-02-23T13:52:47;14.10;;;5.47;;
5867;SDS011;2960;49.142;7.768;2023-02-23T13:55:46;13.60;;;5.70;;
5867;SDS011;2960;49.142;7.768;2023-02-23T13:58:16;13.00;;;5.70;;
5867;SDS011;2960;49.142;7.768;2023-02-23T14:01:02;12.73;;;5.87;;
5867;SDS011;2960;49.142;7.768;2023-02-23T14:03:35;13.43;;;5.53;;
5867;SDS011;2960;49.142;7.768;2023-02-23T14:06:11;11.80;;;5.70;;
5867;SDS011;2960;49.142;7.768;2023-02-23T14:08:41;14.57;;;5.80;;
5867;SDS011;2960;49.142;7.768;2023-02-23T14:11:21;12.20;;;5.10;;
5867;SDS011;2960;49.142;7.768;2023-02-23T14:14:00;12.20;;;4.47;;
5867;SDS011;2960;49.142;7.768;2023-02-23T14:16:28;12.70;;;5.00;;
5867;SDS011;2960;49.142;7.768;2023-02-23T14:21:58;12.33;;;5.50;;
5867;SDS011;2960;49.142;7.768;2023-02-23T14:24:29;13.27;;;5.13;;
5867;SDS011;2960;49.142;7.768;2023-02-23T14:30:10;12.00;;;5.10;;
5867;SDS011;2960;49.142;7.768;2023-02-23T14:32:43;13.10;;;5.30;;
5867;SDS011;2960;49.142;7.768;2023-02-23T14:38:08;10.87;;;4.20;;
5867;SDS011;2960;49.142;7.768;2023-02-23T14:40:52;11.87;;;5.00;;
5867;SDS011;2960;49.142;7.768;2023-02-23T14:46:19;11.23;;;4.63;;
5867;SDS011;2960;49.142;7.768;2023-02-23T14:48:57;12.27;;;5.00;;
5867;SDS011;2960;49.142;7.768;2023-02-23T14:51:30;12.50;;;5.00;;
5867;SDS011;2960;49.142;7.768;2023-02-23T14:54:18;12.00;;;5.10;;
5867;SDS011;2960;49.142;7.768;2023-02-23T14:56:53;13.07;;;5.17;;
5867;SDS011;2960;49.142;7.768;2023-02-23T14:59:24;11.00;;;5.20;;
5867;SDS011;2960;49.142;7.768;2023-02-23T15:01:55;11.97;;;5.20;;
5867;SDS011;2960;49.142;7.768;2023-02-23T15:04:26;11.57;;;4.90;;
5867;SDS011;2960;49.142;7.768;2023-02-23T15:06:56;11.20;;;4.60;;
5867;SDS011;2960;49.142;7.768;2023-02-23T15:09:30;12.90;;;4.33;;
5867;SDS011;2960;49.142;7.768;2023-02-23T15:12:05;11.33;;;4.93;;
5867;SDS011;2960;49.142;7.768;2023-02-23T15:14:40;10.97;;;4.53;;
5867;SDS011;2960;49.142;7.768;2023-02-23T15:17:12;11.53;;;5.10;;
5867;SDS011;2960;49.142;7.768;2023-02-23T15:19:43;11.13;;;4.90;;
5867;SDS011;2960;49.142;7.768;2023-02-23T15:22:15;11.40;;;4.80;;
5867;SDS011;2960;49.142;7.768;2023-02-23T15:24:50;11.20;;;4.30;;
5867;SDS011;2960;49.142;7.768;2023-02-23T15:27:19;10.07;;;4.10;;
5867;SDS011;2960;49.142;7.768;2023-02-23T15:29:52;10.93;;;4.30;;
5867;SDS011;2960;49.142;7.768;2023-02-23T15:32:21;12.20;;;4.57;;
5867;SDS011;2960;49.142;7.768;2023-02-23T15:34:50;11.37;;;4.40;;
5867;SDS011;2960;49.142;7.768;2023-02-23T15:37:23;10.20;;;4.13;;
5867;SDS011;2960;49.142;7.768;2023-02-23T15:39:57;12.47;;;4.50;;
5867;SDS011;2960;49.142;7.768;2023-02-23T15:42:31;10.70;;;4.03;;
5867;SDS011;2960;49.142;7.768;2023-02-23T15:45:04;11.13;;;4.40;;
5867;SDS011;2960;49.142;7.768;2023-02-23T15:47:43;10.03;;;3.97;;
5867;SDS011;2960;49.142;7.768;2023-02-23T15:50:13;11.60;;;4.40;;
5867;SDS011;2960;49.142;7.768;2023-02-23T15:52:44;10.80;;;4.47;;
5867;SDS011;2960;49.142;7.768;2023-02-23T15:55:17;10.63;;;4.00;;
5867;SDS011;2960;49.142;7.768;2023-02-23T15:57:53;12.60;;;4.93;;
5867;SDS011;2960;49.142;7.768;2023-02-23T16:00:28;10.00;;;4.20;;
5867;SDS011;2960;49.142;7.768;2023-02-23T16:03:00;10.40;;;4.30;;